createdAt,value
2022-10-20T00:02:06.736Z,22.10
2022-10-20T00:04:51.757Z,22.00
2022-10-20T00:07:36.710Z,21.33
2022-10-20T00:10:21.614Z,21.10
2022-10-20T00:13:06.685Z,22.73
2022-10-20T00:15:53.961Z,21.67
2022-10-20T00:18:39.735Z,22.85
2022-10-20T00:21:27.479Z,23.23
2022-10-20T00:24:12.462Z,23.58
2022-10-20T00:26:57.820Z,23.15
2022-10-20T00:29:42.984Z,22.52
2022-10-20T00:32:29.760Z,23.38
2022-10-20T00:35:14.803Z,22.85
2022-10-20T00:37:59.874Z,24.00
2022-10-20T00:40:45.305Z,22.45
2022-10-20T00:43:45.755Z,23.27
2022-10-20T00:46:37.668Z,24.33
2022-10-20T00:49:24.931Z,23.85
2022-10-20T00:52:10.992Z,23.80
2022-10-20T00:54:55.932Z,24.13
2022-10-20T00:57:44.459Z,24.85
2022-10-20T01:00:30.741Z,23.27
2022-10-20T01:03:22.606Z,24.60
2022-10-20T01:06:08.039Z,23.65
2022-10-20T01:08:54.133Z,24.60
2022-10-20T01:11:51.439Z,24.92
2022-10-20T01:15:13.971Z,24.70
2022-10-20T01:18:15.582Z,25.20
2022-10-20T01:21:28.442Z,25.92
2022-10-20T01:24:51.912Z,24.23
2022-10-20T01:27:43.507Z,24.58
2022-10-20T01:30:28.938Z,24.38
2022-10-20T01:33:32.175Z,25.33
2022-10-20T01:36:23.868Z,23.23
2022-10-20T01:39:16.791Z,23.77
2022-10-20T01:42:09.354Z,24.02
2022-10-20T01:44:58.489Z,23.83
2022-10-20T01:47:45.281Z,23.70
2022-10-20T01:50:33.437Z,24.20
2022-10-20T01:53:20.497Z,21.83
2022-10-20T01:56:06.597Z,22.67
2022-10-20T01:59:02.787Z,22.55
2022-10-20T02:02:26.216Z,22.30
2022-10-20T02:05:42.114Z,22.77
2022-10-20T02:08:59.926Z,22.02
2022-10-20T02:12:19.366Z,23.25
2022-10-20T02:15:06.769Z,22.67
2022-10-20T02:17:58.540Z,23.05
2022-10-20T02:20:48.910Z,22.00
2022-10-20T02:23:38.499Z,22.45
2022-10-20T02:26:25.451Z,23.50
2022-10-20T02:29:21.299Z,23.77
2022-10-20T02:32:07.677Z,22.95
2022-10-20T02:34:52.649Z,21.20
2022-10-20T02:37:37.935Z,23.13
2022-10-20T02:40:23.475Z,21.92
2022-10-20T02:43:08.390Z,22.20
2022-10-20T02:45:53.478Z,23.50
2022-10-20T02:48:38.776Z,24.08
2022-10-20T02:51:23.921Z,22.35
2022-10-20T02:54:08.886Z,22.65
2022-10-20T02:56:54.596Z,22.27
2022-10-20T02:59:39.910Z,22.20
2022-10-20T03:02:24.900Z,21.52
2022-10-20T03:05:10.213Z,21.73
2022-10-20T03:07:55.568Z,21.27
2022-10-20T03:10:41.597Z,20.23
2022-10-20T03:13:26.493Z,20.48
2022-10-20T03:16:11.394Z,22.48
2022-10-20T03:18:59.997Z,21.88
2022-10-20T03:21:49.601Z,21.85
2022-10-20T03:24:34.513Z,22.00
2022-10-20T03:27:19.541Z,21.05
2022-10-20T03:30:05.295Z,21.77
2022-10-20T03:32:50.565Z,22.33
2022-10-20T03:35:35.565Z,22.13
2022-10-20T03:38:20.830Z,20.85
2022-10-20T03:41:06.150Z,20.35
2022-10-20T03:43:51.376Z,21.65
2022-10-20T03:46:36.630Z,20.15
2022-10-20T03:49:21.808Z,20.38
2022-10-20T03:52:06.937Z,20.02
2022-10-20T03:54:52.331Z,20.45
2022-10-20T03:57:37.882Z,20.52
2022-10-20T04:00:22.987Z,20.65
2022-10-20T04:03:07.815Z,20.08
2022-10-20T04:05:52.720Z,20.45
2022-10-20T04:08:37.774Z,21.42
2022-10-20T04:11:24.025Z,18.88
2022-10-20T04:14:09.065Z,20.15
2022-10-20T04:16:53.967Z,19.70
2022-10-20T04:19:39.041Z,20.98
2022-10-20T04:22:24.186Z,21.42
2022-10-20T04:25:09.934Z,20.38
2022-10-20T04:27:54.781Z,20.17
2022-10-20T04:30:40.415Z,21.02
2022-10-20T04:33:25.598Z,19.73
2022-10-20T04:36:12.536Z,20.58
2022-10-20T04:38:57.865Z,20.58
2022-10-20T04:41:42.920Z,19.80
2022-10-20T04:44:27.872Z,18.45
2022-10-20T04:47:13.066Z,20.08
2022-10-20T04:49:57.880Z,19.88
2022-10-20T04:52:42.977Z,19.23
2022-10-20T04:55:28.051Z,20.20
2022-10-20T04:58:12.996Z,19.65
2022-10-20T05:01:07.172Z,19.50
2022-10-20T05:03:52.659Z,19.73
2022-10-20T05:06:37.872Z,20.00
2022-10-20T05:09:23.154Z,19.17
2022-10-20T05:12:08.381Z,19.92
2022-10-20T05:14:53.868Z,19.67
2022-10-20T05:17:38.796Z,19.63
2022-10-20T05:20:23.817Z,19.80
2022-10-20T05:23:08.695Z,20.30
2022-10-20T05:25:53.500Z,18.52
2022-10-20T05:28:39.974Z,17.48
2022-10-20T05:31:24.978Z,19.98
2022-10-20T05:34:11.047Z,19.98
2022-10-20T05:36:56.161Z,20.00
2022-10-20T05:39:42.454Z,19.40
2022-10-20T05:42:27.388Z,18.52
2022-10-20T05:45:12.361Z,19.00
2022-10-20T05:47:57.548Z,18.15
2022-10-20T05:50:42.440Z,17.65
2022-10-20T05:53:27.269Z,19.52
2022-10-20T05:56:14.957Z,18.98
2022-10-20T05:58:59.958Z,18.52
2022-10-20T06:01:48.306Z,18.48
2022-10-20T06:04:33.948Z,18.55
2022-10-20T06:07:18.799Z,18.02
2022-10-20T06:10:04.742Z,18.20
2022-10-20T06:12:49.551Z,19.08
2022-10-20T06:15:34.550Z,18.73
2022-10-20T06:18:19.486Z,18.58
2022-10-20T06:21:07.382Z,17.20
2022-10-20T06:23:52.603Z,18.02
2022-10-20T06:26:39.856Z,18.70
2022-10-20T06:29:25.349Z,18.73
2022-10-20T06:32:10.411Z,18.73
2022-10-20T06:34:55.261Z,20.00
2022-10-20T06:37:40.352Z,18.23
2022-10-20T06:40:25.506Z,19.42
2022-10-20T06:43:10.646Z,19.20
2022-10-20T06:46:05.141Z,17.27
2022-10-20T06:48:53.001Z,18.20
2022-10-20T06:51:40.239Z,18.53
2022-10-20T06:54:25.452Z,20.30
2022-10-20T06:57:10.512Z,19.27
2022-10-20T06:59:55.535Z,19.73
2022-10-20T07:02:40.677Z,18.30
2022-10-20T07:05:25.782Z,18.70
2022-10-20T07:08:10.747Z,18.42
2022-10-20T07:11:04.076Z,17.92
2022-10-20T07:13:49.414Z,18.80
2022-10-20T07:16:34.950Z,19.42
2022-10-20T07:19:20.520Z,20.27
2022-10-20T07:22:05.565Z,19.90
2022-10-20T07:24:50.560Z,19.83
2022-10-20T07:27:35.562Z,19.75
2022-10-20T07:30:20.721Z,19.17
2022-10-20T07:33:06.114Z,19.60
2022-10-20T07:35:51.165Z,19.35
2022-10-20T07:38:36.231Z,18.10
2022-10-20T07:41:21.386Z,17.77
2022-10-20T07:44:07.470Z,17.13
2022-10-20T07:46:52.658Z,16.52
2022-10-20T07:49:45.459Z,16.63
2022-10-20T07:52:31.461Z,16.45
2022-10-20T07:58:09.573Z,16.38
2022-10-20T08:00:54.407Z,16.67
2022-10-20T08:03:39.461Z,16.70
2022-10-20T08:06:25.074Z,16.20
2022-10-20T08:09:10.148Z,17.25
2022-10-20T08:11:55.986Z,16.65
2022-10-20T08:14:41.478Z,17.58
2022-10-20T08:17:27.563Z,17.83
2022-10-20T08:20:23.596Z,18.40
2022-10-20T08:23:13.071Z,17.95
2022-10-20T08:25:58.110Z,18.50
2022-10-20T08:28:43.021Z,16.50
2022-10-20T08:31:28.064Z,16.38
2022-10-20T08:34:13.149Z,16.50
2022-10-20T08:36:58.159Z,15.93
2022-10-20T08:39:43.286Z,15.93
2022-10-20T08:42:28.397Z,13.60
2022-10-20T08:45:27.677Z,13.60
2022-10-20T08:48:19.494Z,11.75
2022-10-20T08:51:04.847Z,10.30
2022-10-20T08:53:55.005Z,10.15
2022-10-20T08:56:39.951Z,9.52
2022-10-20T08:59:39.771Z,9.25
2022-10-20T09:02:34.835Z,8.65
2022-10-20T09:05:30.032Z,9.15
2022-10-20T09:08:15.668Z,8.15
2022-10-20T09:11:03.039Z,8.80
2022-10-20T09:16:58.762Z,7.65
2022-10-20T09:19:52.066Z,7.65
2022-10-20T09:22:37.181Z,8.27
2022-10-20T09:25:25.376Z,7.68
2022-10-20T09:28:22.328Z,7.32
2022-10-20T09:31:22.506Z,6.78
2022-10-20T09:34:23.203Z,5.57
2022-10-20T09:37:08.540Z,5.40
2022-10-20T09:39:56.970Z,6.60
2022-10-20T09:42:49.587Z,5.93
2022-10-20T09:45:35.698Z,5.30
2022-10-20T09:48:32.715Z,5.75
2022-10-20T09:51:24.319Z,5.63
2022-10-20T09:54:17.150Z,6.35
2022-10-20T09:57:08.668Z,6.03
2022-10-20T09:59:58.645Z,6.72
2022-10-20T10:02:49.621Z,5.30
2022-10-20T10:05:34.799Z,5.55
2022-10-20T10:08:22.194Z,5.10
2022-10-20T10:11:16.278Z,5.15
2022-10-20T10:14:02.864Z,4.70
2022-10-20T10:16:47.916Z,5.72
2022-10-20T10:19:34.575Z,5.90
2022-10-20T10:22:19.494Z,5.65
2022-10-20T10:25:07.182Z,5.00
2022-10-20T10:28:06.847Z,4.15
2022-10-20T10:31:09.378Z,4.22
2022-10-20T10:34:20.813Z,3.38
2022-10-20T10:37:06.268Z,2.90
2022-10-20T10:39:51.533Z,2.50
2022-10-20T10:42:55.370Z,2.92
2022-10-20T10:45:58.396Z,2.88
2022-10-20T10:49:02.337Z,2.65
2022-10-20T10:51:53.513Z,2.40
2022-10-20T10:54:57.655Z,2.67
2022-10-20T10:57:51.732Z,2.85
2022-10-20T11:01:02.638Z,2.80
2022-10-20T11:04:13.457Z,3.30
2022-10-20T11:07:27.971Z,2.88
2022-10-20T11:10:45.508Z,3.15
2022-10-20T11:13:55.797Z,2.78
2022-10-20T11:16:40.931Z,2.88
2022-10-20T11:19:47.250Z,2.85
2022-10-20T11:22:53.099Z,2.60
2022-10-20T11:25:55.259Z,2.83
2022-10-20T11:28:46.719Z,2.85
2022-10-20T11:31:50.743Z,2.92
2022-10-20T11:34:52.124Z,2.58
2022-10-20T11:38:19.069Z,2.72
2022-10-20T11:41:31.741Z,2.30
2022-10-20T11:44:36.936Z,2.35
2022-10-20T11:47:36.377Z,3.05
2022-10-20T11:50:22.128Z,2.60
2022-10-20T11:53:40.665Z,2.15
2022-10-20T11:56:46.666Z,2.20
2022-10-20T11:59:34.786Z,1.73
2022-10-20T12:02:48.238Z,2.17
2022-10-20T12:06:09.255Z,2.40
2022-10-20T12:09:27.134Z,2.30
2022-10-20T12:12:21.384Z,2.20
2022-10-20T12:15:22.548Z,2.13
2022-10-20T12:18:36.744Z,1.90
2022-10-20T12:21:59.722Z,1.90
2022-10-20T12:24:53.736Z,1.88
2022-10-20T12:27:38.724Z,1.50
2022-10-20T12:30:43.583Z,1.40
2022-10-20T12:33:42.433Z,2.05
2022-10-20T12:36:38.462Z,1.98
2022-10-20T12:39:29.659Z,1.38
2022-10-20T12:42:24.361Z,2.50
2022-10-20T12:45:15.940Z,2.17
2022-10-20T12:48:02.729Z,1.83
2022-10-20T12:50:50.086Z,1.60
2022-10-20T12:53:35.475Z,1.67
2022-10-20T12:56:22.193Z,1.50
2022-10-20T12:59:29.188Z,1.30
2022-10-20T13:02:17.425Z,1.23
2022-10-20T13:05:42.900Z,2.05
2022-10-20T13:08:33.555Z,1.83
2022-10-20T13:11:40.694Z,1.40
2022-10-20T13:14:35.855Z,1.42
2022-10-20T13:17:43.172Z,1.33
2022-10-20T13:20:36.548Z,2.30
2022-10-20T13:23:39.000Z,1.77
2022-10-20T13:26:37.570Z,1.08
2022-10-20T13:29:33.181Z,2.90
2022-10-20T13:32:26.189Z,1.42
2022-10-20T13:35:21.226Z,1.48
2022-10-20T13:38:22.280Z,1.13
2022-10-20T13:41:28.279Z,1.38
2022-10-20T13:44:31.784Z,1.25
2022-10-20T13:48:08.209Z,1.58
2022-10-20T13:51:00.837Z,1.40
2022-10-20T13:53:48.783Z,1.00
2022-10-20T13:56:41.327Z,1.10
2022-10-20T13:59:28.810Z,1.13
2022-10-20T14:02:30.130Z,1.38
2022-10-20T14:05:15.081Z,1.40
2022-10-20T14:08:04.559Z,1.75
2022-10-20T14:10:56.890Z,1.20
2022-10-20T14:13:42.907Z,1.10
2022-10-20T14:16:30.084Z,1.58
2022-10-20T14:19:14.968Z,1.33
2022-10-20T14:22:23.668Z,1.05
2022-10-20T14:25:10.776Z,1.43
2022-10-20T14:27:56.639Z,1.50
2022-10-20T14:30:41.949Z,1.67
2022-10-20T14:33:28.312Z,1.52
2022-10-20T14:39:34.221Z,1.23
2022-10-20T14:42:24.905Z,1.75
2022-10-20T14:45:19.453Z,0.98
2022-10-20T14:48:09.589Z,0.98
2022-10-20T14:50:55.314Z,0.60
2022-10-20T14:53:40.760Z,0.93
2022-10-20T14:56:26.000Z,0.70
2022-10-20T14:59:16.740Z,1.02
2022-10-20T15:02:18.939Z,1.02
2022-10-20T15:05:33.544Z,0.73
2022-10-20T15:08:30.959Z,0.73
2022-10-20T15:11:24.355Z,1.20
2022-10-20T15:14:15.909Z,1.15
2022-10-20T15:17:01.147Z,1.27
2022-10-20T15:19:46.365Z,0.90
2022-10-20T15:22:31.279Z,1.15
2022-10-20T15:25:16.251Z,1.00
2022-10-20T15:28:01.410Z,1.25
2022-10-20T15:30:46.343Z,1.40
2022-10-20T15:33:31.943Z,1.00
2022-10-20T15:36:25.004Z,1.00
2022-10-20T15:39:10.426Z,0.95
2022-10-20T15:41:55.336Z,1.00
2022-10-20T15:44:40.307Z,1.23
2022-10-20T15:47:25.447Z,0.93
2022-10-20T15:50:10.500Z,0.82
2022-10-20T15:52:55.644Z,0.88
2022-10-20T15:55:42.621Z,0.90
2022-10-20T15:58:27.593Z,1.30
2022-10-20T16:01:14.140Z,0.93
2022-10-20T16:04:02.501Z,1.23
2022-10-20T16:06:47.841Z,1.60
2022-10-20T16:09:33.042Z,1.10
2022-10-20T16:12:18.020Z,1.02
2022-10-20T16:15:04.345Z,1.00
2022-10-20T16:17:54.656Z,1.36
2022-10-20T16:20:40.061Z,1.38
2022-10-20T16:23:25.333Z,0.95
2022-10-20T16:26:13.305Z,1.27
2022-10-20T16:28:59.747Z,0.80
2022-10-20T16:31:44.668Z,1.42
2022-10-20T16:34:29.862Z,1.30
2022-10-20T16:37:15.053Z,0.98
2022-10-20T16:40:00.490Z,0.90
2022-10-20T16:42:45.593Z,1.10
2022-10-20T16:45:30.886Z,1.17
2022-10-20T16:48:16.029Z,1.38
2022-10-20T16:51:05.869Z,1.42
2022-10-20T16:53:50.929Z,1.40
2022-10-20T16:56:35.962Z,1.52
2022-10-20T16:59:21.124Z,1.13
2022-10-20T17:02:06.405Z,1.65
2022-10-20T17:04:51.624Z,1.58
2022-10-20T17:07:36.952Z,1.20
2022-10-20T17:10:22.474Z,1.38
2022-10-20T17:13:07.774Z,1.23
2022-10-20T17:15:53.221Z,0.90
2022-10-20T17:18:38.637Z,0.95
2022-10-20T17:21:23.706Z,1.20
2022-10-20T17:24:13.597Z,1.60
2022-10-20T17:29:43.582Z,1.25
2022-10-20T17:32:28.482Z,1.30
2022-10-20T17:35:14.549Z,1.95
2022-10-20T17:38:03.684Z,2.00
2022-10-20T17:40:50.052Z,2.28
2022-10-20T17:43:35.719Z,1.67
2022-10-20T17:46:20.988Z,1.65
2022-10-20T17:49:06.390Z,1.90
2022-10-20T17:51:51.566Z,1.42
2022-10-20T17:54:36.590Z,1.30
2022-10-20T17:57:21.633Z,2.00
2022-10-20T18:00:11.740Z,1.65
2022-10-20T18:02:59.963Z,2.13
2022-10-20T18:05:44.891Z,1.85
2022-10-20T18:08:30.073Z,2.05
2022-10-20T18:11:18.246Z,2.20
2022-10-20T18:14:04.083Z,2.08
2022-10-20T18:16:49.094Z,1.23
2022-10-20T18:19:34.392Z,1.75
2022-10-20T18:22:19.603Z,1.48
2022-10-20T18:25:05.197Z,1.52
2022-10-20T18:27:50.350Z,1.33
2022-10-20T18:30:37.365Z,1.27
2022-10-20T18:33:22.554Z,1.70
2022-10-20T18:36:10.068Z,1.30
2022-10-20T18:38:55.451Z,1.67
2022-10-20T18:41:42.900Z,1.60
2022-10-20T18:47:14.623Z,1.53
2022-10-20T18:49:59.630Z,1.63
2022-10-20T18:52:44.822Z,2.78
2022-10-20T18:55:29.893Z,2.40
2022-10-20T18:58:14.907Z,2.40
2022-10-20T19:01:05.503Z,2.80
2022-10-20T19:03:52.478Z,2.70
2022-10-20T19:06:41.133Z,3.25
2022-10-20T19:09:26.443Z,3.95
2022-10-20T19:12:11.362Z,4.05
2022-10-20T19:14:56.413Z,3.85
2022-10-20T19:17:41.350Z,3.88
2022-10-20T19:20:29.951Z,4.38
2022-10-20T19:23:14.884Z,3.85
2022-10-20T19:26:03.044Z,3.60
2022-10-20T19:28:56.094Z,5.88
2022-10-20T19:31:50.052Z,6.75
2022-10-20T19:34:38.026Z,6.57
2022-10-20T19:37:24.245Z,5.15
2022-10-20T19:40:09.940Z,5.18
2022-10-20T19:42:54.857Z,3.75
2022-10-20T19:45:39.793Z,3.20
2022-10-20T19:48:25.031Z,2.78
2022-10-20T19:51:10.051Z,3.08
2022-10-20T19:53:55.073Z,4.75
2022-10-20T19:56:41.090Z,5.25
2022-10-20T19:59:26.239Z,5.25
2022-10-20T20:02:12.600Z,5.13
2022-10-20T20:04:57.995Z,6.13
2022-10-20T20:07:43.111Z,5.68
2022-10-20T20:10:28.091Z,5.47
2022-10-20T20:13:13.202Z,5.63
2022-10-20T20:15:58.311Z,5.78
2022-10-20T20:18:43.502Z,5.32
2022-10-20T20:21:28.549Z,5.53
2022-10-20T20:24:14.415Z,6.47
2022-10-20T20:26:59.626Z,6.25
2022-10-20T20:29:44.500Z,5.57
2022-10-20T20:32:30.127Z,6.05
2022-10-20T20:35:15.337Z,16.50
2022-10-20T20:38:00.520Z,11.88
2022-10-20T20:40:47.386Z,6.38
2022-10-20T20:43:33.026Z,6.35
2022-10-20T20:46:20.214Z,8.55
2022-10-20T20:49:05.686Z,9.35
2022-10-20T20:51:50.959Z,9.32
2022-10-20T20:54:36.228Z,14.05
2022-10-20T20:57:21.777Z,11.48
2022-10-20T21:00:07.772Z,6.78
2022-10-20T21:02:52.810Z,5.10
2022-10-20T21:05:38.025Z,4.88
2022-10-20T21:08:23.360Z,5.30
2022-10-20T21:11:10.883Z,5.65
2022-10-20T21:13:58.792Z,5.40
2022-10-20T21:16:44.182Z,5.57
2022-10-20T21:19:29.764Z,8.32
2022-10-20T21:22:14.734Z,8.60
2022-10-20T21:24:59.447Z,8.00
2022-10-20T21:27:44.566Z,9.15
2022-10-20T21:30:29.411Z,9.75
2022-10-20T21:33:14.402Z,11.02
2022-10-20T21:36:07.917Z,11.52
2022-10-20T21:38:53.354Z,10.98
2022-10-20T21:41:38.815Z,9.82
2022-10-20T21:44:23.631Z,11.27
2022-10-20T21:47:08.621Z,14.02
2022-10-20T21:49:53.565Z,10.05
2022-10-20T21:52:39.154Z,7.53
2022-10-20T21:55:24.189Z,6.53
2022-10-20T21:58:09.282Z,8.25
2022-10-20T22:00:55.942Z,7.05
2022-10-20T22:03:41.751Z,7.55
2022-10-20T22:06:28.052Z,8.43
2022-10-20T22:09:14.264Z,8.52
2022-10-20T22:11:59.528Z,8.63
2022-10-20T22:14:46.430Z,7.47
2022-10-20T22:17:32.750Z,8.40
2022-10-20T22:20:17.924Z,8.73
2022-10-20T22:23:04.047Z,6.72
2022-10-20T22:25:53.751Z,5.70
2022-10-20T22:28:39.237Z,5.80
2022-10-20T22:31:25.282Z,4.32
2022-10-20T22:34:11.185Z,3.38
2022-10-20T22:36:56.493Z,3.85
2022-10-20T22:39:41.844Z,3.45
2022-10-20T22:42:26.804Z,3.38
2022-10-20T22:45:11.940Z,5.43
2022-10-20T22:47:57.169Z,3.53
2022-10-20T22:50:42.275Z,3.95
2022-10-20T22:53:27.113Z,4.60
2022-10-20T22:56:18.613Z,4.72
2022-10-20T22:59:03.738Z,5.35
2022-10-20T23:01:49.033Z,4.95
2022-10-20T23:04:34.094Z,4.72
2022-10-20T23:07:19.144Z,5.53
2022-10-20T23:10:05.929Z,5.38
2022-10-20T23:12:51.135Z,5.70
2022-10-20T23:15:36.076Z,5.85
2022-10-20T23:18:21.105Z,6.28
2022-10-20T23:21:06.574Z,6.15
2022-10-20T23:23:52.447Z,6.50
2022-10-20T23:26:37.778Z,6.18
2022-10-20T23:29:23.026Z,7.18
2022-10-20T23:32:08.184Z,7.38
2022-10-20T23:34:53.696Z,7.53
2022-10-20T23:37:39.918Z,7.47
2022-10-20T23:40:25.137Z,7.40
2022-10-20T23:43:10.330Z,7.50
2022-10-20T23:45:55.526Z,7.78
2022-10-20T23:48:40.993Z,7.95
2022-10-20T23:51:26.224Z,8.93
2022-10-20T23:54:11.670Z,8.38
2022-10-20T23:56:56.622Z,9.10
2022-10-20T23:59:41.565Z,8.95
